createdAt,value
2019-04-20T00:01:46.736Z,36.53
2019-04-20T00:05:10.998Z,43.57
2019-04-20T00:08:37.688Z,36.53
2019-04-20T00:12:10.312Z,33.50
2019-04-20T00:15:26.071Z,32.17
2019-04-20T00:18:55.438Z,48.20
2019-04-20T00:22:41.093Z,39.37
2019-04-20T00:26:32.254Z,51.50
2019-04-20T00:29:58.824Z,40.60
2019-04-20T00:33:25.756Z,38.40
2019-04-20T00:36:34.911Z,51.70
2019-04-20T00:39:59.564Z,39.60
2019-04-20T00:43:28.105Z,73.27
2019-04-20T00:47:01.994Z,30.47
2019-04-20T00:50:28.217Z,31.93
2019-04-20T00:53:44.954Z,30.20
2019-04-20T00:57:20.374Z,28.97
2019-04-20T01:00:48.401Z,31.83
2019-04-20T01:04:16.335Z,28.63
2019-04-20T01:07:37.149Z,34.03
2019-04-20T01:10:55.715Z,30.67
2019-04-20T01:14:25.736Z,33.60
2019-04-20T01:17:43.184Z,28.20
2019-04-20T01:21:14.878Z,36.30
2019-04-20T01:24:37.150Z,27.93
2019-04-20T01:28:16.322Z,28.83
2019-04-20T01:31:33.638Z,25.17
2019-04-20T01:35:01.491Z,25.67
2019-04-20T01:38:30.733Z,94.73
2019-04-20T01:41:39.751Z,49.43
2019-04-20T01:45:10.284Z,32.23
2019-04-20T01:48:33.948Z,24.57
2019-04-20T01:52:04.891Z,24.13
2019-04-20T01:55:45.652Z,25.47
2019-04-20T01:59:10.522Z,31.37
2019-04-20T02:02:43.618Z,23.17
2019-04-20T02:06:16.699Z,25.37
2019-04-20T02:09:43.347Z,26.43
2019-04-20T02:13:05.829Z,23.00
2019-04-20T02:16:35.465Z,38.13
2019-04-20T02:20:10.712Z,23.50
2019-04-20T02:23:32.999Z,49.70
2019-04-20T02:26:47.143Z,21.73
2019-04-20T02:30:53.926Z,24.57
2019-04-20T02:34:27.105Z,28.40
2019-04-20T02:37:56.858Z,24.37
2019-04-20T02:41:12.054Z,23.27
2019-04-20T02:44:40.409Z,29.30
2019-04-20T02:48:06.538Z,26.47
2019-04-20T02:51:35.452Z,118.90
2019-04-20T02:55:09.191Z,195.43
2019-04-20T02:58:15.403Z,64.93
2019-04-20T03:01:33.512Z,23.07
2019-04-20T03:04:49.144Z,35.27
2019-04-20T03:08:22.380Z,52.97
2019-04-20T03:11:58.274Z,27.87
2019-04-20T03:15:20.128Z,46.47
2019-04-20T03:18:40.007Z,103.17
2019-04-20T03:22:09.500Z,33.80
2019-04-20T03:25:55.871Z,31.13
2019-04-20T03:29:13.077Z,20.43
2019-04-20T03:33:02.456Z,19.23
2019-04-20T03:36:18.373Z,24.53
2019-04-20T03:39:31.326Z,21.13
2019-04-20T03:42:43.377Z,25.67
2019-04-20T03:46:11.660Z,22.63
2019-04-20T03:50:14.090Z,21.10
2019-04-20T03:53:34.451Z,20.73
2019-04-20T03:56:54.384Z,35.90
2019-04-20T04:00:30.563Z,44.87
2019-04-20T04:04:06.666Z,136.67
2019-04-20T04:07:18.045Z,38.07
2019-04-20T04:10:51.541Z,25.23
2019-04-20T04:13:58.774Z,73.97
2019-04-20T04:17:28.783Z,24.63
2019-04-20T04:20:54.030Z,25.97
2019-04-20T04:24:27.129Z,19.27
2019-04-20T04:27:57.044Z,21.43
2019-04-20T04:31:25.943Z,22.13
2019-04-20T04:34:48.655Z,34.03
2019-04-20T04:38:12.754Z,20.83
2019-04-20T04:41:39.962Z,23.03
2019-04-20T04:44:58.392Z,24.43
2019-04-20T04:48:21.466Z,23.60
2019-04-20T04:51:49.005Z,25.20
2019-04-20T04:55:18.841Z,22.40
2019-04-20T04:58:31.997Z,24.77
2019-04-20T05:01:58.161Z,25.70
2019-04-20T05:05:49.352Z,23.50
2019-04-20T05:09:00.101Z,37.33
2019-04-20T05:12:23.950Z,34.97
2019-04-20T05:15:59.306Z,30.77
2019-04-20T05:19:33.328Z,37.53
2019-04-20T05:23:07.727Z,29.43
2019-04-20T05:26:40.872Z,28.57
2019-04-20T05:29:43.085Z,27.63
2019-04-20T05:33:19.940Z,27.20
2019-04-20T05:37:11.047Z,25.97
2019-04-20T05:40:21.877Z,28.90
2019-04-20T05:43:41.189Z,26.57
2019-04-20T05:47:11.265Z,22.37
2019-04-20T05:50:36.409Z,24.80
2019-04-20T05:54:04.459Z,24.70
2019-04-20T05:57:30.210Z,22.10
2019-04-20T06:01:00.416Z,22.10
2019-04-20T06:04:30.069Z,18.67
2019-04-20T06:07:48.714Z,19.63
2019-04-20T06:11:19.315Z,19.60
2019-04-20T06:14:43.143Z,18.03
2019-04-20T06:18:13.254Z,19.40
2019-04-20T06:21:41.458Z,16.20
2019-04-20T06:28:30.161Z,10.93
2019-04-20T06:32:06.905Z,9.73
2019-04-20T06:35:40.852Z,12.80
2019-04-20T06:42:31.103Z,11.73
2019-04-20T06:45:51.312Z,11.47
2019-04-20T06:49:19.649Z,17.30
2019-04-20T06:52:34.095Z,15.20
2019-04-20T06:56:14.195Z,13.77
2019-04-20T06:59:31.774Z,13.57
2019-04-20T07:02:56.374Z,15.40
2019-04-20T07:06:37.825Z,15.90
2019-04-20T07:10:05.171Z,13.57
2019-04-20T07:13:09.197Z,16.33
2019-04-20T07:16:46.482Z,15.60
2019-04-20T07:20:19.647Z,12.93
2019-04-20T07:23:53.415Z,11.70
2019-04-20T07:27:16.961Z,16.07
2019-04-20T07:30:42.142Z,16.43
2019-04-20T07:34:04.695Z,14.00
2019-04-20T07:40:56.197Z,16.63
2019-04-20T07:44:27.023Z,15.03
2019-04-20T07:51:04.873Z,13.63
2019-04-20T07:54:56.085Z,21.60
2019-04-20T07:57:59.023Z,13.10
2019-04-20T08:01:38.625Z,14.63
2019-04-20T08:05:08.204Z,16.43
2019-04-20T08:08:34.830Z,17.63
2019-04-20T08:12:14.103Z,18.60
2019-04-20T08:15:42.754Z,15.37
2019-04-20T08:19:09.998Z,16.17
2019-04-20T08:22:27.026Z,15.83
2019-04-20T08:25:41.890Z,16.57
2019-04-20T08:29:16.811Z,15.27
2019-04-20T08:33:05.928Z,13.73
2019-04-20T08:36:43.260Z,13.93
2019-04-20T08:44:21.718Z,15.97
2019-04-20T08:47:07.308Z,17.90
2019-04-20T08:53:41.842Z,13.90
2019-04-20T08:56:55.306Z,13.90
2019-04-20T09:00:18.270Z,28.53
2019-04-20T09:03:49.633Z,15.40
2019-04-20T09:07:17.458Z,11.83
2019-04-20T09:10:48.180Z,14.67
2019-04-20T09:14:03.876Z,20.13
2019-04-20T09:17:41.004Z,18.83
2019-04-20T09:21:04.371Z,11.50
2019-04-20T09:24:43.554Z,13.67
2019-04-20T09:28:18.863Z,15.93
2019-04-20T09:31:50.263Z,9.77
2019-04-20T09:35:20.582Z,10.10
2019-04-20T09:38:56.720Z,7.07
2019-04-20T09:42:20.273Z,18.97
2019-04-20T09:45:48.550Z,20.13
2019-04-20T09:49:21.288Z,11.83
2019-04-20T09:52:51.312Z,11.80
2019-04-20T09:56:18.231Z,14.40
2019-04-20T09:59:44.653Z,10.37
2019-04-20T10:02:54.713Z,14.33
2019-04-20T10:06:24.339Z,10.63
2019-04-20T10:09:45.616Z,9.20
2019-04-20T10:13:10.020Z,12.73
2019-04-20T10:16:35.679Z,10.27
2019-04-20T10:20:02.531Z,12.83
2019-04-20T10:23:25.044Z,11.37
2019-04-20T10:26:50.364Z,11.07
2019-04-20T10:30:14.660Z,10.70
2019-04-20T10:33:39.614Z,12.27
2019-04-20T10:37:05.939Z,16.77
2019-04-20T10:40:44.977Z,12.70
2019-04-20T10:43:56.614Z,13.10
2019-04-20T10:47:21.060Z,13.27
2019-04-20T10:50:45.429Z,14.13
2019-04-20T10:54:30.272Z,12.03
2019-04-20T10:57:55.487Z,10.90
2019-04-20T11:01:19.916Z,10.13
2019-04-20T11:04:44.371Z,10.57
2019-04-20T11:08:10.673Z,9.63
2019-04-20T11:11:35.893Z,13.03
2019-04-20T11:15:00.623Z,12.57
2019-04-20T11:18:25.113Z,13.70
2019-04-20T11:21:50.241Z,14.37
2019-04-20T11:25:14.480Z,14.50
2019-04-20T11:28:39.888Z,11.23
2019-04-20T11:32:05.252Z,14.90
2019-04-20T11:35:34.434Z,17.87
2019-04-20T11:38:54.792Z,10.43
2019-04-20T11:42:19.529Z,18.90
2019-04-20T11:45:44.616Z,11.03
2019-04-20T11:49:09.678Z,12.27
2019-04-20T11:52:38.792Z,12.43
2019-04-20T11:56:00.420Z,9.63
2019-04-20T11:59:25.387Z,10.60
2019-04-20T12:03:00.309Z,12.10
2019-04-20T12:06:23.224Z,14.80
2019-04-20T12:09:47.367Z,13.93
2019-04-20T12:13:14.720Z,13.63
2019-04-20T12:16:39.616Z,13.90
2019-04-20T12:20:05.959Z,8.93
2019-04-20T12:23:30.643Z,14.70
2019-04-20T12:26:56.470Z,16.17
2019-04-20T12:30:21.722Z,14.43
2019-04-20T12:33:46.466Z,17.83
2019-04-20T12:37:11.207Z,14.87
2019-04-20T12:40:39.948Z,9.07
2019-04-20T12:44:05.693Z,9.43
2019-04-20T12:47:29.860Z,9.07
2019-04-20T12:50:55.327Z,10.40
2019-04-20T12:54:20.639Z,13.43
2019-04-20T12:57:44.776Z,13.00
2019-04-20T13:01:10.014Z,8.20
2019-04-20T13:04:35.210Z,12.57
2019-04-20T13:08:01.330Z,9.50
2019-04-20T13:11:26.697Z,6.30
2019-04-20T13:15:08.535Z,11.23
2019-04-20T13:18:43.722Z,7.57
2019-04-20T13:22:07.680Z,6.73
2019-04-20T13:25:34.952Z,9.60
2019-04-20T13:29:00.998Z,5.60
2019-04-20T13:32:25.684Z,12.77
2019-04-20T13:35:50.165Z,7.87
2019-04-20T13:39:14.592Z,9.87
2019-04-20T13:42:39.097Z,10.53
2019-04-20T13:46:04.914Z,56.03
2019-04-20T13:49:29.191Z,19.63
2019-04-20T13:52:53.147Z,10.10
2019-04-20T13:56:19.466Z,14.50
2019-04-20T13:59:46.139Z,8.53
2019-04-20T14:03:11.716Z,20.00
2019-04-20T14:06:35.621Z,8.47
2019-04-20T14:10:00.032Z,67.90
2019-04-20T14:13:35.271Z,27.73
2019-04-20T14:16:52.920Z,16.03
2019-04-20T14:20:20.188Z,7.13
2019-04-20T14:23:43.253Z,10.33
2019-04-20T14:27:08.711Z,10.93
2019-04-20T14:30:33.075Z,6.53
2019-04-20T14:33:57.257Z,8.80
2019-04-20T14:37:21.125Z,20.13
2019-04-20T14:40:46.343Z,9.70
2019-04-20T14:44:10.339Z,20.43
2019-04-20T14:47:36.109Z,10.60
2019-04-20T14:51:01.293Z,6.20
2019-04-20T14:54:27.433Z,11.37
2019-04-20T14:57:51.566Z,15.83
2019-04-20T15:01:18.354Z,8.57
2019-04-20T15:04:43.246Z,5.93
2019-04-20T15:08:07.248Z,8.60
2019-04-20T15:11:31.024Z,22.90
2019-04-20T15:14:56.571Z,6.20
2019-04-20T15:18:31.516Z,17.27
2019-04-20T15:22:03.273Z,6.63
2019-04-20T15:25:27.456Z,6.03
2019-04-20T15:28:52.925Z,9.07
2019-04-20T15:32:16.837Z,7.93
2019-04-20T15:35:41.991Z,5.77
2019-04-20T15:39:07.658Z,16.03
2019-04-20T15:42:33.072Z,5.30
2019-04-20T15:45:57.376Z,8.50
2019-04-20T15:49:22.103Z,10.70
2019-04-20T15:52:50.888Z,4.50
2019-04-20T15:56:11.932Z,5.90
2019-04-20T15:59:36.393Z,7.83
2019-04-20T16:03:03.239Z,8.30
2019-04-20T16:06:27.411Z,8.77
2019-04-20T16:09:51.692Z,15.67
2019-04-20T16:13:22.156Z,6.87
2019-04-20T16:16:42.382Z,8.40
2019-04-20T16:20:13.512Z,10.97
2019-04-20T16:23:34.684Z,10.83
2019-04-20T16:27:17.811Z,10.67
2019-04-20T16:30:43.370Z,15.20
2019-04-20T16:34:07.698Z,14.10
2019-04-20T16:37:32.708Z,17.93
2019-04-20T16:40:56.716Z,12.47
2019-04-20T16:44:21.078Z,12.93
2019-04-20T16:47:46.272Z,15.93
2019-04-20T16:51:10.973Z,12.73
2019-04-20T16:54:37.554Z,20.43
2019-04-20T16:58:01.736Z,14.60
2019-04-20T17:01:25.875Z,16.03
2019-04-20T17:04:52.046Z,15.60
2019-04-20T17:08:16.717Z,21.33
2019-04-20T17:11:41.552Z,17.80
2019-04-20T17:15:10.229Z,15.70
2019-04-20T17:22:05.768Z,24.73
2019-04-20T17:25:30.189Z,43.07
2019-04-20T17:29:01.919Z,22.90
2019-04-20T17:32:27.600Z,24.40
2019-04-20T17:36:01.420Z,23.43
2019-04-20T17:39:29.994Z,21.00
2019-04-20T17:42:53.192Z,19.63
2019-04-20T17:46:22.513Z,20.57
2019-04-20T17:49:51.287Z,28.07
2019-04-20T17:53:13.716Z,33.60
2019-04-20T17:56:26.680Z,30.60
2019-04-20T17:59:57.985Z,30.40
2019-04-20T18:03:59.009Z,26.17
2019-04-20T18:06:57.943Z,21.97
2019-04-20T18:10:30.288Z,61.07
2019-04-20T18:13:40.040Z,24.67
2019-04-20T18:17:32.619Z,25.73
2019-04-20T18:21:03.197Z,39.07
2019-04-20T18:24:50.745Z,108.13
2019-04-20T18:28:04.412Z,76.93
2019-04-20T18:31:20.017Z,36.73
2019-04-20T18:34:55.580Z,49.73
2019-04-20T18:38:18.450Z,83.43
2019-04-20T18:41:48.657Z,56.30
2019-04-20T18:45:28.500Z,126.73
2019-04-20T18:48:57.019Z,63.53
2019-04-20T18:52:00.036Z,117.53
2019-04-20T18:55:34.235Z,49.93
2019-04-20T18:58:49.649Z,82.37
2019-04-20T19:02:22.601Z,75.83
2019-04-20T19:05:39.899Z,53.80
2019-04-20T19:09:09.543Z,41.07
2019-04-20T19:12:41.424Z,34.93
2019-04-20T19:16:14.762Z,49.17
2019-04-20T19:19:50.961Z,43.43
2019-04-20T19:23:11.624Z,42.87
2019-04-20T19:26:38.437Z,48.40
2019-04-20T19:30:15.220Z,51.33
2019-04-20T19:33:37.488Z,42.07
2019-04-20T19:37:06.314Z,42.07
2019-04-20T19:40:31.122Z,41.70
2019-04-20T19:43:54.988Z,38.63
2019-04-20T19:47:28.429Z,57.53
2019-04-20T19:51:04.157Z,46.50
2019-04-20T19:54:24.210Z,38.73
2019-04-20T19:57:45.350Z,40.43
2019-04-20T20:00:55.784Z,36.63
2019-04-20T20:04:19.590Z,42.33
2019-04-20T20:07:47.468Z,33.20
2019-04-20T20:11:21.714Z,36.97
2019-04-20T20:14:39.737Z,39.37
2019-04-20T20:18:19.339Z,37.40
2019-04-20T20:21:39.962Z,46.57
2019-04-20T20:24:52.558Z,36.43
2019-04-20T20:28:29.903Z,29.37
2019-04-20T20:32:01.973Z,35.00
2019-04-20T20:35:16.727Z,26.80
2019-04-20T20:38:39.986Z,25.73
2019-04-20T20:42:12.892Z,29.80
2019-04-20T20:45:33.670Z,35.07
2019-04-20T20:49:09.415Z,30.60
2019-04-20T20:52:31.539Z,33.00
2019-04-20T20:55:47.636Z,34.33
2019-04-20T20:59:13.992Z,26.40
2019-04-20T21:02:45.877Z,24.17
2019-04-20T21:05:59.991Z,26.77
2019-04-20T21:09:25.672Z,23.93
2019-04-20T21:12:55.502Z,22.07
2019-04-20T21:16:20.329Z,22.23
2019-04-20T21:19:59.384Z,26.10
2019-04-20T21:23:22.492Z,28.27
2019-04-20T21:26:37.625Z,30.63
2019-04-20T21:30:00.514Z,23.60
2019-04-20T21:33:28.900Z,25.73
2019-04-20T21:36:50.668Z,20.97
2019-04-20T21:40:23.525Z,21.07
2019-04-20T21:43:42.927Z,23.20
2019-04-20T21:47:07.196Z,24.63
2019-04-20T21:50:54.550Z,28.23
2019-04-20T21:53:58.707Z,25.47
2019-04-20T21:57:22.349Z,27.63
2019-04-20T22:01:07.255Z,18.80
2019-04-20T22:04:21.577Z,25.07
2019-04-20T22:07:46.398Z,18.50
2019-04-20T22:11:11.699Z,20.40
2019-04-20T22:14:35.791Z,20.03
2019-04-20T22:18:09.188Z,22.30
2019-04-20T22:21:38.483Z,24.57
2019-04-20T22:25:08.226Z,22.97
2019-04-20T22:28:18.090Z,19.20
2019-04-20T22:31:45.194Z,22.83
2019-04-20T22:35:12.431Z,17.93
2019-04-20T22:38:56.194Z,18.90
2019-04-20T22:42:18.716Z,20.03
2019-04-20T22:45:47.462Z,21.90
2019-04-20T22:49:28.374Z,20.40
2019-04-20T22:52:44.369Z,20.97
2019-04-20T22:56:19.701Z,16.73
2019-04-20T22:59:38.352Z,22.70
2019-04-20T23:02:52.239Z,19.27
2019-04-20T23:06:16.641Z,19.90
2019-04-20T23:09:48.681Z,21.17
2019-04-20T23:13:05.813Z,20.53
2019-04-20T23:16:37.887Z,32.13
2019-04-20T23:19:59.277Z,21.13
2019-04-20T23:23:25.453Z,21.77
2019-04-20T23:26:47.654Z,35.03
2019-04-20T23:30:21.286Z,28.57
2019-04-20T23:33:38.095Z,22.20
2019-04-20T23:37:03.001Z,19.33
2019-04-20T23:40:27.773Z,62.30
2019-04-20T23:44:01.901Z,53.63
2019-04-20T23:47:22.053Z,39.30
2019-04-20T23:51:01.230Z,25.83
2019-04-20T23:54:19.963Z,53.33
2019-04-20T23:57:39.709Z,23.70
